sensor_id;sensor_type;location;lat;lon;timestamp;temperature;humidity
2314;DHT22;42279;51.388;7.000;2023-04-03T00:01:07;1.90;99.90
2314;DHT22;42279;51.388;7.000;2023-04-03T00:10:56;1.90;99.90
2314;DHT22;42279;51.388;7.000;2023-04-03T00:15:53;1.60;99.90
2314;DHT22;42279;51.388;7.000;2023-04-03T00:18:22;1.50;99.90
2314;DHT22;42279;51.388;7.000;2023-04-03T00:20:49;1.50;99.90
2314;DHT22;42279;51.388;7.000;2023-04-03T00:23:19;1.60;99.90
2314;DHT22;42279;51.388;7.000;2023-04-03T00:25:45;1.70;99.90
2314;DHT22;42279;51.388;7.000;2023-04-03T00:30:49;1.70;99.90
2314;DHT22;42279;51.388;7.000;2023-04-03T00:40:41;1.90;99.90
2314;DHT22;42279;51.388;7.000;2023-04-03T00:43:20;1.70;99.90
2314;DHT22;42279;51.388;7.000;2023-04-03T00:45:52;1.80;99.90
2314;DHT22;42279;51.388;7.000;2023-04-03T00:53:31;1.70;99.90
2314;DHT22;42279;51.388;7.000;2023-04-03T00:55:58;1.60;99.90
2314;DHT22;42279;51.388;7.000;2023-04-03T00:58:37;1.80;99.90
2314;DHT22;42279;51.388;7.000;2023-04-03T01:01:06;1.90;99.90
2314;DHT22;42279;51.388;7.000;2023-04-03T01:10:51;1.70;99.90
2314;DHT22;42279;51.388;7.000;2023-04-03T01:13:37;1.70;99.90
2314;DHT22;42279;51.388;7.000;2023-04-03T01:16:05;1.80;99.90
2314;DHT22;42279;51.388;7.000;2023-04-03T01:18:37;1.70;99.90
2314;DHT22;42279;51.388;7.000;2023-04-03T01:23:51;1.60;99.90
2314;DHT22;42279;51.388;7.000;2023-04-03T01:26:18;1.70;99.90
2314;DHT22;42279;51.388;7.000;2023-04-03T01:28:44;1.70;99.90
2314;DHT22;42279;51.388;7.000;2023-04-03T01:31:25;1.80;99.90
2314;DHT22;42279;51.388;7.000;2023-04-03T01:33:52;1.70;99.90
2314;DHT22;42279;51.388;7.000;2023-04-03T01:36:25;2.40;99.90
2314;DHT22;42279;51.388;7.000;2023-04-03T01:38:52;2.40;99.90
2314;DHT22;42279;51.388;7.000;2023-04-03T01:41:19;1.80;99.90
2314;DHT22;42279;51.388;7.000;2023-04-03T01:43:46;1.90;99.90
2314;DHT22;42279;51.388;7.000;2023-04-03T01:46:12;1.90;99.90
2314;DHT22;42279;51.388;7.000;2023-04-03T01:48:38;2.20;99.90
2314;DHT22;42279;51.388;7.000;2023-04-03T01:51:04;1.40;99.90
2314;DHT22;42279;51.388;7.000;2023-04-03T01:53:29;1.50;99.90
2314;DHT22;42279;51.388;7.000;2023-04-03T01:55:55;1.40;99.90
2314;DHT22;42279;51.388;7.000;2023-04-03T01:58:21;1.60;99.90
2314;DHT22;42279;51.388;7.000;2023-04-03T02:00:46;1.50;99.90
2314;DHT22;42279;51.388;7.000;2023-04-03T02:08:05;1.60;99.90
2314;DHT22;42279;51.388;7.000;2023-04-03T02:10:31;2.10;99.90
2314;DHT22;42279;51.388;7.000;2023-04-03T02:12:56;1.50;99.90
2314;DHT22;42279;51.388;7.000;2023-04-03T02:15:22;1.70;99.90
2314;DHT22;42279;51.388;7.000;2023-04-03T02:17:48;1.60;99.90
2314;DHT22;42279;51.388;7.000;2023-04-03T02:22:49;1.40;99.90
2314;DHT22;42279;51.388;7.000;2023-04-03T03:01:05;1.40;99.90
2314;DHT22;42279;51.388;7.000;2023-04-03T03:03:34;1.40;99.90
2314;DHT22;42279;51.388;7.000;2023-04-03T03:11:05;1.10;99.90
2314;DHT22;42279;51.388;7.000;2023-04-03T03:13:31;1.30;99.90
2314;DHT22;42279;51.388;7.000;2023-04-03T03:15:57;1.20;99.90
2314;DHT22;42279;51.388;7.000;2023-04-03T03:18:23;1.40;99.90
2314;DHT22;42279;51.388;7.000;2023-04-03T03:20:56;1.00;99.90
2314;DHT22;42279;51.388;7.000;2023-04-03T03:23:22;1.20;99.90
2314;DHT22;42279;51.388;7.000;2023-04-03T03:25:48;1.10;99.90
2314;DHT22;42279;51.388;7.000;2023-04-03T03:28:14;1.90;99.90
2314;DHT22;42279;51.388;7.000;2023-04-03T03:30:40;1.00;99.90
2314;DHT22;42279;51.388;7.000;2023-04-03T03:33:05;1.50;99.90
2314;DHT22;42279;51.388;7.000;2023-04-03T03:35:31;1.00;99.90
2314;DHT22;42279;51.388;7.000;2023-04-03T03:37:56;1.00;99.90
2314;DHT22;42279;51.388;7.000;2023-04-03T03:40:25;1.10;99.90
2314;DHT22;42279;51.388;7.000;2023-04-03T03:42:51;0.90;99.90
2314;DHT22;42279;51.388;7.000;2023-04-03T03:45:20;0.90;99.90
2314;DHT22;42279;51.388;7.000;2023-04-03T04:05:26;1.00;99.90
2314;DHT22;42279;51.388;7.000;2023-04-03T04:07:51;0.90;99.90
2314;DHT22;42279;51.388;7.000;2023-04-03T04:10:17;0.90;99.90
2314;DHT22;42279;51.388;7.000;2023-04-03T04:12:43;0.90;99.90
2314;DHT22;42279;51.388;7.000;2023-04-03T04:15:09;1.20;99.90
2314;DHT22;42279;51.388;7.000;2023-04-03T04:17:39;1.30;99.90
2314;DHT22;42279;51.388;7.000;2023-04-03T04:20:05;0.70;99.90
2314;DHT22;42279;51.388;7.000;2023-04-03T04:22:30;0.90;99.90
2314;DHT22;42279;51.388;7.000;2023-04-03T04:24:56;1.70;99.90
2314;DHT22;42279;51.388;7.000;2023-04-03T04:27:21;1.20;99.90
2314;DHT22;42279;51.388;7.000;2023-04-03T04:32:16;0.90;99.90
2314;DHT22;42279;51.388;7.000;2023-04-03T04:37:08;1.00;99.90
2314;DHT22;42279;51.388;7.000;2023-04-03T04:39:33;0.90;99.90
2314;DHT22;42279;51.388;7.000;2023-04-03T04:42:00;0.80;99.90
2314;DHT22;42279;51.388;7.000;2023-04-03T04:49:17;0.80;99.90
2314;DHT22;42279;51.388;7.000;2023-04-03T04:56:42;0.90;99.90
2314;DHT22;42279;51.388;7.000;2023-04-03T04:59:07;0.80;99.90
2314;DHT22;42279;51.388;7.000;2023-04-03T05:03:59;0.90;99.90
2314;DHT22;42279;51.388;7.000;2023-04-03T05:06:25;0.80;99.90
2314;DHT22;42279;51.388;7.000;2023-04-03T05:08:50;0.90;99.90
2314;DHT22;42279;51.388;7.000;2023-04-03T05:11:16;0.90;99.90
2314;DHT22;42279;51.388;7.000;2023-04-03T05:13:42;0.90;99.90
2314;DHT22;42279;51.388;7.000;2023-04-03T05:18:33;1.10;99.90
2314;DHT22;42279;51.388;7.000;2023-04-03T05:20:59;1.20;99.90
2314;DHT22;42279;51.388;7.000;2023-04-03T05:23:25;1.00;99.90
2314;DHT22;42279;51.388;7.000;2023-04-03T05:28:17;0.90;99.90
2314;DHT22;42279;51.388;7.000;2023-04-03T05:30:43;1.10;99.90
2314;DHT22;42279;51.388;7.000;2023-04-03T05:33:08;1.20;99.90
2314;DHT22;42279;51.388;7.000;2023-04-03T05:35:36;1.10;99.90
2314;DHT22;42279;51.388;7.000;2023-04-03T05:38:04;2.40;99.90
2314;DHT22;42279;51.388;7.000;2023-04-03T05:40:30;1.00;99.90
2314;DHT22;42279;51.388;7.000;2023-04-03T05:42:56;1.10;99.90
2314;DHT22;42279;51.388;7.000;2023-04-03T05:45:22;1.50;99.90
2314;DHT22;42279;51.388;7.000;2023-04-03T05:47:47;1.70;99.90
2314;DHT22;42279;51.388;7.000;2023-04-03T05:50:14;1.40;99.90
2314;DHT22;42279;51.388;7.000;2023-04-03T05:52:42;1.50;99.90
2314;DHT22;42279;51.388;7.000;2023-04-03T05:55:09;1.50;99.90
2314;DHT22;42279;51.388;7.000;2023-04-03T06:00:03;1.90;99.90
2314;DHT22;42279;51.388;7.000;2023-04-03T06:02:28;2.40;99.90
2314;DHT22;42279;51.388;7.000;2023-04-03T06:09:57;4.10;99.90
2314;DHT22;42279;51.388;7.000;2023-04-03T06:12:26;4.50;99.90
2314;DHT22;42279;51.388;7.000;2023-04-03T06:14:51;5.10;99.90
2314;DHT22;42279;51.388;7.000;2023-04-03T06:17:17;5.60;99.90
2314;DHT22;42279;51.388;7.000;2023-04-03T06:31:57;7.00;99.90
2314;DHT22;42279;51.388;7.000;2023-04-03T06:39:19;7.80;99.90
2314;DHT22;42279;51.388;7.000;2023-04-03T06:41:46;7.60;99.90
2314;DHT22;42279;51.388;7.000;2023-04-03T06:44:12;7.90;99.90
2314;DHT22;42279;51.388;7.000;2023-04-03T06:46:40;7.50;99.90
2314;DHT22;42279;51.388;7.000;2023-04-03T06:49:06;7.20;99.90
2314;DHT22;42279;51.388;7.000;2023-04-03T06:51:33;7.50;99.90
2314;DHT22;42279;51.388;7.000;2023-04-03T06:54:00;8.10;99.90
2314;DHT22;42279;51.388;7.000;2023-04-03T06:56:26;8.40;99.90
2314;DHT22;42279;51.388;7.000;2023-04-03T07:01:27;9.00;99.90
2314;DHT22;42279;51.388;7.000;2023-04-03T07:03:54;9.00;99.90
2314;DHT22;42279;51.388;7.000;2023-04-03T07:06:20;8.80;99.90
2314;DHT22;42279;51.388;7.000;2023-04-03T07:11:13;10.50;99.90
2314;DHT22;42279;51.388;7.000;2023-04-03T07:13:39;10.70;99.90
2314;DHT22;42279;51.388;7.000;2023-04-03T07:16:06;10.20;99.90
2314;DHT22;42279;51.388;7.000;2023-04-03T07:18:33;9.20;99.90
2314;DHT22;42279;51.388;7.000;2023-04-03T07:20:59;9.70;99.90
2314;DHT22;42279;51.388;7.000;2023-04-03T07:23:25;8.90;99.90
2314;DHT22;42279;51.388;7.000;2023-04-03T07:25:52;8.90;99.90
2314;DHT22;42279;51.388;7.000;2023-04-03T07:28:19;9.90;99.90
2314;DHT22;42279;51.388;7.000;2023-04-03T08:37:02;12.50;69.60
2314;DHT22;42279;51.388;7.000;2023-04-03T09:17:38;14.90;50.80
2314;DHT22;42279;51.388;7.000;2023-04-03T09:22:43;14.80;48.60
2314;DHT22;42279;51.388;7.000;2023-04-03T09:25:18;15.60;50.70
2314;DHT22;42279;51.388;7.000;2023-04-03T09:27:45;15.50;49.60
2314;DHT22;42279;51.388;7.000;2023-04-03T09:30:16;16.20;49.60
2314;DHT22;42279;51.388;7.000;2023-04-03T09:32:44;15.50;48.30
2314;DHT22;42279;51.388;7.000;2023-04-03T09:37:45;16.10;47.90
2314;DHT22;42279;51.388;7.000;2023-04-03T09:42:57;15.70;47.20
2314;DHT22;42279;51.388;7.000;2023-04-03T09:45:30;16.20;49.30
2314;DHT22;42279;51.388;7.000;2023-04-03T09:48:16;16.80;50.80
2314;DHT22;42279;51.388;7.000;2023-04-03T09:53:40;15.90;54.40
2314;DHT22;42279;51.388;7.000;2023-04-03T09:58:43;16.40;53.40
2314;DHT22;42279;51.388;7.000;2023-04-03T10:04:12;15.90;53.70
2314;DHT22;42279;51.388;7.000;2023-04-03T11:04:11;17.80;43.30
2314;DHT22;42279;51.388;7.000;2023-04-03T11:06:45;17.60;43.50
2314;DHT22;42279;51.388;7.000;2023-04-03T11:09:41;17.40;43.10
2314;DHT22;42279;51.388;7.000;2023-04-03T11:12:47;17.80;42.90
2314;DHT22;42279;51.388;7.000;2023-04-03T11:15:17;17.90;43.30
2314;DHT22;42279;51.388;7.000;2023-04-03T11:18:01;19.00;44.20
2314;DHT22;42279;51.388;7.000;2023-04-03T11:23:06;17.60;43.90
2314;DHT22;42279;51.388;7.000;2023-04-03T11:25:39;16.30;45.30
2314;DHT22;42279;51.388;7.000;2023-04-03T11:28:13;16.40;46.90
2314;DHT22;42279;51.388;7.000;2023-04-03T11:30:42;17.00;47.70
2314;DHT22;42279;51.388;7.000;2023-04-03T11:35:52;17.00;46.10
2314;DHT22;42279;51.388;7.000;2023-04-03T11:38:32;17.20;46.20
2314;DHT22;42279;51.388;7.000;2023-04-03T11:41:02;17.60;43.90
2314;DHT22;42279;51.388;7.000;2023-04-03T11:43:30;18.10;42.60
2314;DHT22;42279;51.388;7.000;2023-04-03T11:46:14;18.20;55.20
2314;DHT22;42279;51.388;7.000;2023-04-03T13:41:01;16.00;41.40
2314;DHT22;42279;51.388;7.000;2023-04-03T13:43:30;16.30;41.70
2314;DHT22;42279;51.388;7.000;2023-04-03T13:48:43;17.70;40.20
2314;DHT22;42279;51.388;7.000;2023-04-03T13:53:51;17.00;42.00
2314;DHT22;42279;51.388;7.000;2023-04-03T13:56:27;16.70;42.60
2314;DHT22;42279;51.388;7.000;2023-04-03T13:59:03;16.70;42.40
2314;DHT22;42279;51.388;7.000;2023-04-03T14:04:31;16.80;39.80
2314;DHT22;42279;51.388;7.000;2023-04-03T14:06:58;17.50;39.10
2314;DHT22;42279;51.388;7.000;2023-04-03T14:09:26;16.70;41.40
2314;DHT22;42279;51.388;7.000;2023-04-03T14:11:57;17.30;42.20
2314;DHT22;42279;51.388;7.000;2023-04-03T14:14:27;17.30;41.90
2314;DHT22;42279;51.388;7.000;2023-04-03T14:16:57;17.60;41.60
2314;DHT22;42279;51.388;7.000;2023-04-03T14:19:30;17.00;42.00
2314;DHT22;42279;51.388;7.000;2023-04-03T14:21:58;17.00;42.60
2314;DHT22;42279;51.388;7.000;2023-04-03T14:24:24;16.70;42.80
2314;DHT22;42279;51.388;7.000;2023-04-03T14:26:52;16.90;42.20
2314;DHT22;42279;51.388;7.000;2023-04-03T14:29:19;17.30;42.20
2314;DHT22;42279;51.388;7.000;2023-04-03T14:31:47;17.40;42.80
2314;DHT22;42279;51.388;7.000;2023-04-03T14:34:14;17.60;42.30
2314;DHT22;42279;51.388;7.000;2023-04-03T14:36:42;16.60;41.60
2314;DHT22;42279;51.388;7.000;2023-04-03T14:39:11;16.80;41.60
2314;DHT22;42279;51.388;7.000;2023-04-03T14:41:41;17.30;42.50
2314;DHT22;42279;51.388;7.000;2023-04-03T14:44:07;15.80;53.70
